Time;durP1;ratioP1;P1;durP2;ratioP2;P2;SDS_P1;SDS_P2;PMS_P1;PMS_P2;Temp;Humidity;BMP_temperature;BMP_pressure;BME280_temperature;BME280_humidity;BME280_pressure;Samples;Min_cycle;Max_cycle;Signal;HPM_P1;HPM_P2
2022/05/23 00:01:21;;;;;;;10.05;6.25;;;;;;;19.14;54.58;100480.41;3590545;39;20390;-65
2022/05/23 00:03:47;;;;;;;11.02;6.13;;;;;;;19.03;54.79;100469.78;3590820;39;20348;-64
2022/05/23 00:06:19;;;;;;;8.77;5.57;;;;;;;19.10;54.26;100479.03;3590946;39;20079;-64
2022/05/23 00:08:47;;;;;;;9.70;6.20;;;;;;;19.09;54.45;100480.00;3592365;39;20075;-64
2022/05/23 00:11:12;;;;;;;12.40;6.00;;;;;;;18.90;55.01;100463.84;3590405;39;20132;-65
2022/05/23 00:13:38;;;;;;;13.02;5.75;;;;;;;19.08;54.14;100482.91;3590572;39;20055;-64
2022/05/23 00:16:18;;;;;;;13.73;6.05;;;;;;;19.05;54.28;100477.78;3589514;39;20063;-64
2022/05/23 00:18:44;;;;;;;10.73;5.78;;;;;;;19.04;54.64;100476.94;3590573;39;20071;-64
2022/05/23 00:21:10;;;;;;;9.70;5.57;;;;;;;19.03;55.02;100483.41;3589551;39;20059;-65
2022/05/23 00:23:36;;;;;;;12.00;6.03;;;;;;;19.03;54.42;100469.78;3590755;39;20454;-64
2022/05/23 00:26:01;;;;;;;11.52;6.50;;;;;;;18.90;54.72;100447.53;3591133;39;20048;-64
2022/05/23 00:28:27;;;;;;;8.88;5.55;;;;;;;18.96;54.97;100463.22;3591676;39;20068;-64
2022/05/23 00:30:52;;;;;;;10.10;5.60;;;;;;;18.88;55.79;100444.97;3591461;40;20386;-64
2022/05/23 00:36:02;;;;;;;12.60;6.03;;;;;;;18.89;55.66;100467.59;3590722;39;20179;-65
2022/05/23 00:38:28;;;;;;;12.70;6.80;;;;;;;18.87;55.98;100478.69;3591914;39;20052;-65
2022/05/23 00:44:21;;;;;;;10.88;5.80;;;;;;;18.83;55.35;100462.78;3590514;39;20664;-64
2022/05/23 00:47:22;;;;;;;10.45;5.70;;;;;;;18.80;55.16;100458.50;3589776;39;20422;-64
2022/05/23 00:49:48;;;;;;;13.25;5.57;;;;;;;18.77;55.72;100454.25;3590613;40;20460;-64
2022/05/23 00:52:32;;;;;;;10.15;5.60;;;;;;;18.76;55.09;100447.06;3590339;39;20079;-64
2022/05/23 00:55:05;;;;;;;9.32;5.68;;;;;;;18.76;55.96;100433.47;3591256;39;20063;-64
2022/05/23 00:57:40;;;;;;;7.93;5.45;;;;;;;18.74;55.54;100423.72;3591129;39;20060;-64
2022/05/23 01:00:10;;;;;;;10.27;5.75;;;;;;;18.72;56.05;100426.63;3590786;39;20059;-64
2022/05/23 01:02:37;;;;;;;12.40;5.47;;;;;;;18.69;56.40;100428.78;3590449;39;20047;-65
2022/05/23 01:05:08;;;;;;;11.40;6.15;;;;;;;18.68;57.26;100436.09;3590999;40;20082;-64
2022/05/23 01:07:34;;;;;;;9.73;5.85;;;;;;;18.66;56.36;100439.97;3590831;39;20378;-65
2022/05/23 01:09:59;;;;;;;10.23;5.95;;;;;;;18.62;56.64;100447.63;3590525;39;20044;-65
2022/05/23 01:12:27;;;;;;;11.13;6.28;;;;;;;18.59;56.73;100444.34;3589402;39;20086;-65
2022/05/23 01:15:05;;;;;;;12.45;5.72;;;;;;;18.53;57.54;100445.81;3591568;39;20059;-64
2022/05/23 01:17:31;;;;;;;9.30;6.20;;;;;;;18.55;57.59;100454.66;3590185;39;20056;-65
2022/05/23 01:19:56;;;;;;;10.73;6.00;;;;;;;18.37;57.14;100429.34;3587705;39;20091;-64
2022/05/23 01:22:51;;;;;;;10.38;6.18;;;;;;;18.52;56.97;100453.13;3590440;39;20387;-64
2022/05/23 01:25:41;;;;;;;10.68;6.65;;;;;;;18.43;57.61;100434.16;3589864;39;20060;-64
2022/05/23 01:28:07;;;;;;;10.32;5.90;;;;;;;18.31;58.26;100420.78;3590805;40;20335;-64
2022/05/23 01:30:34;;;;;;;13.27;6.53;;;;;;;18.28;57.68;100434.69;3590071;39;20127;-64
2022/05/23 01:33:02;;;;;;;9.50;6.22;;;;;;;18.20;57.99;100425.56;3591407;39;20086;-64
2022/05/23 01:35:28;;;;;;;9.80;6.30;;;;;;;18.18;58.45;100425.75;3590101;39;20422;-64
2022/05/23 01:37:54;;;;;;;11.50;6.40;;;;;;;17.99;58.50;100395.97;3589477;39;20075;-64
2022/05/23 01:40:20;;;;;;;12.15;6.93;;;;;;;18.12;58.42;100420.91;3591136;39;20056;-64
2022/05/23 01:42:46;;;;;;;17.38;7.18;;;;;;;17.97;59.21;100403.41;3590431;39;20066;-64
2022/05/23 01:45:17;;;;;;;10.20;6.40;;;;;;;17.94;59.08;100417.31;3589927;39;20068;-64
2022/05/23 01:47:43;;;;;;;8.73;6.60;;;;;;;17.93;59.60;100419.19;3591398;39;20036;-64
2022/05/23 01:50:09;;;;;;;11.63;6.50;;;;;;;17.56;59.03;100362.97;3591840;39;20310;-64
2022/05/23 01:52:36;;;;;;;11.95;6.13;;;;;;;17.96;59.77;100426.19;3591584;39;20061;-64
2022/05/23 01:55:03;;;;;;;10.70;6.78;;;;;;;17.94;59.36;100430.91;3591982;40;20128;-64
2022/05/23 01:57:32;;;;;;;11.35;6.60;;;;;;;17.88;59.34;100417.91;3592306;39;20129;-64
2022/05/23 02:02:44;;;;;;;9.07;6.30;;;;;;;17.92;59.68;100411.16;3590960;40;20055;-64
2022/05/23 02:05:10;;;;;;;14.18;7.30;;;;;;;17.84;59.32;100399.19;3592007;39;20048;-64
2022/05/23 02:07:36;;;;;;;10.25;6.95;;;;;;;17.67;59.43;100372.78;3593096;39;20054;-64
2022/05/23 02:10:02;;;;;;;12.88;7.15;;;;;;;17.79;59.85;100393.38;3593575;39;20059;-64
2022/05/23 02:12:28;;;;;;;10.93;7.00;;;;;;;17.72;60.23;100385.91;3591649;39;20059;-66
2022/05/23 02:14:54;;;;;;;9.57;7.03;;;;;;;17.74;59.53;100392.06;3592992;40;20072;-64
2022/05/23 02:17:19;;;;;;;10.18;6.93;;;;;;;17.77;60.18;100411.69;3594849;39;20428;-64
2022/05/23 02:19:46;;;;;;;11.02;7.10;;;;;;;17.53;60.22;100370.56;3594956;40;20049;-64
2022/05/23 02:22:12;;;;;;;11.05;7.10;;;;;;;17.70;60.95;100407.84;3593917;39;20397;-66
2022/05/23 02:24:37;;;;;;;13.45;7.28;;;;;;;17.64;61.33;100400.28;3593419;40;20052;-64
2022/05/23 02:27:03;;;;;;;12.30;6.85;;;;;;;17.56;60.83;100381.13;3594006;39;20087;-64
2022/05/23 02:29:29;;;;;;;11.30;7.38;;;;;;;17.61;61.30;100397.88;3594224;39;20460;-64
2022/05/23 02:31:55;;;;;;;11.75;7.25;;;;;;;17.49;61.56;100370.03;3594039;39;20484;-64
2022/05/23 02:34:21;;;;;;;12.65;7.60;;;;;;;17.66;61.69;100391.97;3593529;39;20425;-64
2022/05/23 02:36:47;;;;;;;11.50;7.45;;;;;;;17.55;61.98;100380.28;3592905;39;20283;-64
2022/05/23 02:39:14;;;;;;;11.88;7.35;;;;;;;17.60;61.75;100387.97;3593664;39;20063;-64
2022/05/23 02:41:40;;;;;;;10.80;7.00;;;;;;;17.59;61.93;100383.56;3591195;40;20139;-64
2022/05/23 02:44:07;;;;;;;12.25;7.55;;;;;;;17.57;62.30;100378.28;3591224;39;20087;-64
2022/05/23 02:46:33;;;;;;;12.57;7.72;;;;;;;17.44;62.31;100355.16;3590826;39;20050;-64
2022/05/23 02:48:59;;;;;;;14.88;7.63;;;;;;;17.49;62.59;100364.59;3591323;39;20063;-64
2022/05/23 02:51:25;;;;;;;11.30;7.88;;;;;;;17.52;62.83;100358.00;3589718;39;20050;-64
2022/05/23 02:53:51;;;;;;;11.50;7.43;;;;;;;17.16;62.02;100292.69;3591166;39;20072;-64
2022/05/23 02:56:17;;;;;;;11.57;7.53;;;;;;;17.42;61.76;100324.59;3590872;39;20056;-64
2022/05/23 02:58:44;;;;;;;13.48;7.13;;;;;;;17.48;61.39;100330.28;3591609;39;20353;-64
2022/05/23 03:01:11;;;;;;;10.30;6.78;;;;;;;17.44;61.83;100315.25;3591335;39;20345;-64
2022/05/23 03:03:39;;;;;;;9.95;7.38;;;;;;;17.35;62.14;100303.47;3589623;39;20064;-64
2022/05/23 03:06:06;;;;;;;11.18;7.63;;;;;;;17.47;61.94;100316.81;3591447;39;20058;-64
2022/05/23 03:08:32;;;;;;;11.85;8.32;;;;;;;17.42;62.60;100298.28;3591421;39;20048;-64
2022/05/23 03:11:01;;;;;;;12.00;8.85;;;;;;;17.24;62.56;100257.47;3591339;39;20091;-64
2022/05/23 03:13:29;;;;;;;13.20;8.23;;;;;;;17.42;62.66;100292.84;3591694;39;20343;-64
2022/05/23 03:15:55;;;;;;;16.65;9.10;;;;;;;17.27;62.43;100265.31;3591743;39;20059;-64
2022/05/23 03:18:24;;;;;;;14.82;8.15;;;;;;;17.37;61.96;100279.69;3590987;39;20092;-64
2022/05/23 03:21:01;;;;;;;13.70;8.55;;;;;;;17.20;62.36;100247.91;3590373;39;20098;-64
2022/05/23 03:29:02;;;;;;;13.45;8.52;;;;;;;17.31;62.82;100260.44;3590736;39;20128;-64
2022/05/23 03:31:29;;;;;;;15.55;9.27;;;;;;;17.27;63.45;100253.59;3590226;39;20339;-64
2022/05/23 03:33:54;;;;;;;12.60;8.70;;;;;;;17.29;62.99;100257.88;3591014;39;20067;-64
2022/05/23 03:36:21;;;;;;;12.32;8.23;;;;;;;17.27;63.09;100254.44;3589613;39;20074;-64
2022/05/23 03:38:47;;;;;;;12.98;7.80;;;;;;;17.22;63.24;100247.75;3590365;39;20072;-64
2022/05/23 03:41:13;;;;;;;12.60;8.82;;;;;;;17.23;63.15;100241.34;3589793;39;20355;-64
2022/05/23 03:43:39;;;;;;;15.00;8.90;;;;;;;17.19;63.68;100243.50;3588740;40;20398;-63
2022/05/23 03:46:10;;;;;;;16.25;8.38;;;;;;;17.15;63.52;100236.66;3590156;39;20048;-64
2022/05/23 03:48:37;;;;;;;13.55;8.50;;;;;;;17.10;63.47;100223.53;3591648;39;20055;-64
2022/05/23 03:51:05;;;;;;;9.40;7.90;;;;;;;17.15;63.19;100242.06;3589134;39;20067;-64
2022/05/23 03:53:31;;;;;;;14.43;8.55;;;;;;;17.15;64.08;100231.22;3590072;39;20934;-64
2022/05/23 03:55:57;;;;;;;11.93;8.38;;;;;;;17.12;64.34;100226.09;3590248;39;20063;-64
2022/05/23 03:58:25;;;;;;;11.93;8.13;;;;;;;17.05;63.76;100216.84;3591341;39;20070;-64
2022/05/23 04:00:52;;;;;;;13.27;8.50;;;;;;;16.94;63.82;100213.34;3590162;39;20040;-64
2022/05/23 04:03:19;;;;;;;14.23;8.25;;;;;;;17.02;64.14;100222.56;3591613;39;20048;-64
2022/05/23 04:05:46;;;;;;;10.52;8.02;;;;;;;16.86;64.49;100194.22;3590145;39;20051;-64
2022/05/23 04:08:12;;;;;;;11.93;8.10;;;;;;;16.81;64.77;100182.09;3589966;39;20165;-64
2022/05/23 04:10:39;;;;;;;13.77;8.18;;;;;;;17.00;64.31;100213.72;3590391;39;20060;-64
2022/05/23 04:13:06;;;;;;;11.77;7.95;;;;;;;17.00;64.53;100211.88;3591472;39;20059;-63
2022/05/23 04:15:33;;;;;;;12.07;8.45;;;;;;;17.05;64.82;100203.25;3591627;39;20066;-64
2022/05/23 04:17:58;;;;;;;14.55;8.70;;;;;;;17.06;64.42;100200.41;3591136;39;20092;-64
2022/05/23 04:20:26;;;;;;;12.20;8.18;;;;;;;17.03;65.01;100184.44;3590779;40;20056;-64
2022/05/23 04:22:52;;;;;;;13.13;8.45;;;;;;;17.04;64.85;100179.84;3591120;39;20048;-64
2022/05/23 04:25:19;;;;;;;11.32;8.50;;;;;;;17.18;64.76;100192.88;3589774;39;20141;-64
2022/05/23 04:27:44;;;;;;;12.15;8.23;;;;;;;17.04;64.41;100164.41;3592099;39;20623;-64
2022/05/23 04:30:11;;;;;;;13.65;8.77;;;;;;;17.15;64.72;100177.75;3591028;39;20052;-63
2022/05/23 04:35:22;;;;;;;13.68;8.05;;;;;;;17.32;64.45;100177.94;3591010;40;20398;-65
2022/05/23 04:37:51;;;;;;;11.10;7.90;;;;;;;17.37;64.72;100181.88;3589999;40;20058;-64
2022/05/23 04:40:23;;;;;;;15.40;7.97;;;;;;;17.46;64.23;100188.25;3590728;39;20046;-64
2022/05/23 04:42:50;;;;;;;13.73;7.70;;;;;;;17.42;64.34;100167.00;3590106;39;20069;-62
2022/05/23 04:45:18;;;;;;;12.75;7.65;;;;;;;17.56;64.58;100185.47;3589410;39;20048;-62
2022/05/23 04:50:29;;;;;;;13.13;7.72;;;;;;;17.55;64.03;100159.31;3590415;39;20054;-63
2022/05/23 04:52:57;;;;;;;8.75;6.57;;;;;;;17.58;63.57;100162.56;3588644;39;20135;-62
2022/05/23 04:55:24;;;;;;;11.63;7.68;;;;;;;17.67;63.97;100165.38;3590312;39;20055;-63
2022/05/23 04:57:52;;;;;;;13.95;7.45;;;;;;;17.67;63.95;100151.78;3590293;39;20048;-63
2022/05/23 05:00:20;;;;;;;14.70;7.45;;;;;;;17.47;64.10;100110.31;3590379;39;20068;-63
2022/05/23 05:02:48;;;;;;;15.18;7.25;;;;;;;17.85;63.32;100164.31;3587816;39;20063;-62
2022/05/23 05:05:16;;;;;;;13.85;8.32;;;;;;;17.88;63.07;100167.75;3590296;39;20051;-62
2022/05/23 05:07:42;;;;;;;11.48;6.60;;;;;;;17.88;62.78;100151.44;3591041;39;20310;-63
2022/05/23 05:10:08;;;;;;;11.73;6.65;;;;;;;17.64;63.33;100090.41;3598338;39;20303;-63
2022/05/23 05:12:34;;;;;;;13.57;7.00;;;;;;;18.09;63.45;100155.50;3589661;39;20052;-63
2022/05/23 05:15:00;;;;;;;14.63;6.55;;;;;;;18.10;62.49;100145.47;3590728;39;20059;-63
2022/05/23 05:17:26;;;;;;;11.90;6.40;;;;;;;18.10;63.01;100134.59;3590847;39;20068;-63
2022/05/23 05:19:52;;;;;;;14.52;7.32;;;;;;;18.12;63.57;100118.13;3589746;39;20087;-63
2022/05/23 05:22:17;;;;;;;17.48;6.97;;;;;;;18.23;63.22;100124.13;3590539;39;20125;-63
2022/05/23 05:24:43;;;;;;;9.68;6.53;;;;;;;18.29;62.69;100123.47;3592058;39;20052;-63
2022/05/23 05:27:10;;;;;;;10.20;6.63;;;;;;;18.27;61.64;100102.91;3591699;39;20129;-63
2022/05/23 05:29:37;;;;;;;14.25;6.90;;;;;;;18.35;62.32;100116.53;3590012;39;20048;-63
2022/05/23 05:32:28;;;;;;;12.80;6.57;;;;;;;18.43;62.49;100110.31;3591695;39;20068;-64
2022/05/23 05:35:05;;;;;;;11.73;6.30;;;;;;;18.48;61.23;100114.22;3592030;39;20060;-64
2022/05/23 05:37:44;;;;;;;14.20;6.90;;;;;;;18.47;61.43;100100.78;3591478;39;20060;-64
2022/05/23 05:40:16;;;;;;;15.73;6.78;;;;;;;18.53;61.69;100108.28;3593042;39;20101;-64
2022/05/23 05:42:50;;;;;;;15.02;7.28;;;;;;;18.53;61.31;100092.81;3626566;22;20325;-61
2022/05/23 05:45:31;;;;;;;12.82;6.63;;;;;;;18.62;61.20;100095.56;3560127;40;20069;-61
2022/05/23 05:47:59;;;;;;;15.57;6.88;;;;;;;18.65;60.36;100087.94;3562142;40;20085;-62
2022/05/23 05:50:33;;;;;;;12.55;6.90;;;;;;;18.70;60.12;100073.81;3559790;40;20715;-61
2022/05/23 05:53:09;;;;;;;11.68;7.55;;;;;;;18.79;59.82;100076.41;3560789;40;20089;-62
2022/05/23 05:55:37;;;;;;;12.85;6.45;;;;;;;18.88;60.36;100073.72;3561563;40;20131;-63
2022/05/23 05:58:04;;;;;;;8.80;6.55;;;;;;;18.95;60.09;100074.75;3560658;40;20065;-62
2022/05/23 06:00:30;;;;;;;9.25;6.28;;;;;;;19.00;59.44;100072.38;3558969;40;20093;-62
2022/05/23 06:02:55;;;;;;;14.80;6.85;;;;;;;19.05;59.47;100080.88;3561447;40;20411;-62
2022/05/23 06:05:21;;;;;;;8.55;6.90;;;;;;;19.12;60.08;100070.16;3560401;40;20134;-62
2022/05/23 06:13:15;;;;;;;9.13;6.47;;;;;;;19.21;58.33;100078.19;3559830;40;20072;-62
2022/05/23 06:15:42;;;;;;;9.75;5.82;;;;;;;19.31;57.54;100074.44;3560799;40;20061;-62
2022/05/23 06:18:08;;;;;;;9.05;6.10;;;;;;;19.38;57.91;100068.16;3560140;40;20096;-63
2022/05/23 06:20:34;;;;;;;11.20;6.32;;;;;;;19.47;57.63;100056.22;3559511;40;20325;-62
2022/05/23 06:23:01;;;;;;;9.57;5.90;;;;;;;19.56;57.96;100059.78;3558706;40;20714;-61
2022/05/23 06:25:27;;;;;;;11.10;5.85;;;;;;;19.57;56.05;100044.25;3559464;40;20073;-61
2022/05/23 06:27:53;;;;;;;13.70;5.80;;;;;;;19.70;55.66;100053.66;3559250;40;20069;-62
2022/05/23 06:30:20;;;;;;;10.60;6.07;;;;;;;19.55;56.44;100021.78;3558531;40;20333;-62
2022/05/23 06:32:47;;;;;;;12.45;6.00;;;;;;;19.76;55.67;100045.81;3558694;40;20105;-62
2022/05/23 06:35:14;;;;;;;7.97;5.63;;;;;;;19.83;55.85;100041.38;3559868;40;20053;-62
2022/05/23 06:37:43;;;;;;;8.27;5.05;;;;;;;19.75;56.37;100022.28;3558207;40;20054;-62
2022/05/23 06:40:13;;;;;;;11.73;6.47;;;;;;;20.03;56.03;100042.66;3559343;40;20112;-62
2022/05/23 06:42:39;;;;;;;11.23;6.68;;;;;;;20.04;55.79;100036.19;3557721;40;20131;-62
2022/05/23 06:45:06;;;;;;;8.43;6.05;;;;;;;20.22;55.75;100044.16;3560947;40;20085;-62
2022/05/23 06:47:34;;;;;;;10.68;5.90;;;;;;;19.60;55.23;99924.84;3550416;40;20046;-62
2022/05/23 06:49:59;;;;;;;11.13;5.72;;;;;;;20.51;55.14;100043.53;3562629;40;20455;-62
2022/05/23 06:52:25;;;;;;;14.30;6.78;;;;;;;20.77;54.75;100050.56;3559281;40;20065;-63
2022/05/23 06:54:51;;;;;;;7.45;5.18;;;;;;;20.92;53.61;100031.50;3557366;40;20053;-63
2022/05/23 06:57:17;;;;;;;10.18;5.75;;;;;;;21.08;53.16;100045.91;3557783;40;20053;-63
2022/05/23 06:59:43;;;;;;;7.57;4.97;;;;;;;20.95;53.31;100023.78;3559593;40;20049;-63
2022/05/23 07:02:10;;;;;;;10.60;6.05;;;;;;;21.11;53.45;100047.41;3559239;40;20056;-63
2022/05/23 07:12:52;;;;;;;7.18;4.78;;;;;;;20.98;52.84;100050.75;3559936;40;20063;-63
2022/05/23 07:15:18;;;;;;;9.77;4.90;;;;;;;20.92;53.20;100043.28;3559450;40;20053;-63
2022/05/23 07:17:44;;;;;;;10.55;5.40;;;;;;;20.89;52.93;100040.91;3560892;40;20072;-63
2022/05/23 07:20:11;;;;;;;7.30;5.07;;;;;;;20.88;53.46;100035.66;3560714;40;20047;-62
2022/05/23 07:22:37;;;;;;;8.38;5.13;;;;;;;20.82;53.34;100037.22;3560076;40;20095;-63
2022/05/23 07:25:06;;;;;;;7.65;5.07;;;;;;;20.83;53.51;100038.91;3560764;40;20107;-63
2022/05/23 07:27:33;;;;;;;6.53;5.18;;;;;;;20.79;54.05;100043.03;3559346;40;20049;-63
2022/05/23 07:29:59;;;;;;;10.32;5.07;;;;;;;20.77;55.15;100051.44;3559188;40;20324;-63
2022/05/23 07:32:25;;;;;;;9.23;5.10;;;;;;;20.73;54.24;100027.38;3549738;40;20069;-63
2022/05/23 07:34:50;;;;;;;9.73;5.88;;;;;;;20.85;54.04;100045.06;3560862;40;20116;-63
2022/05/23 07:37:16;;;;;;;9.82;4.80;;;;;;;20.86;54.32;100044.84;3559123;40;20053;-63
2022/05/23 07:39:42;;;;;;;6.70;5.07;;;;;;;21.00;54.35;100045.97;3560145;40;20400;-63
2022/05/23 07:42:10;;;;;;;8.43;5.18;;;;;;;20.95;52.88;100015.59;3558520;40;20063;-63
2022/05/23 07:44:37;;;;;;;12.88;6.00;;;;;;;21.21;52.77;100036.25;3559153;40;20128;-63
2022/05/23 07:47:06;;;;;;;8.98;4.85;;;;;;;21.32;52.38;100033.09;3560315;40;20115;-63
2022/05/23 07:49:34;;;;;;;9.50;4.72;;;;;;;21.44;51.77;100022.56;3560277;40;20050;-63
2022/05/23 07:52:01;;;;;;;10.07;5.30;;;;;;;21.64;52.41;100028.38;3558947;40;20308;-63
2022/05/23 08:02:39;;;;;;;10.00;4.07;;;;;;;22.35;47.77;100023.31;3549870;40;20128;-62
2022/05/23 08:05:06;;;;;;;6.63;4.13;;;;;;;22.41;47.90;100015.19;3560171;40;20053;-62
2022/05/23 08:07:31;;;;;;;7.72;4.20;;;;;;;22.47;47.79;100011.66;3557963;40;20064;-62
2022/05/23 08:10:00;;;;;;;6.63;4.20;;;;;;;22.60;48.77;100004.66;3559852;40;20312;-62
2022/05/23 08:12:29;;;;;;;7.03;4.00;;;;;;;22.69;48.50;99993.38;3558482;40;20360;-62
2022/05/23 08:14:55;;;;;;;9.75;4.07;;;;;;;22.70;48.33;99986.84;3559808;40;20050;-62
2022/05/23 08:17:21;;;;;;;9.30;4.03;;;;;;;22.62;48.46;99986.16;3559834;40;20115;-62
2022/05/23 08:19:46;;;;;;;9.20;4.70;;;;;;;22.53;48.64;99988.16;3559014;40;20381;-62
2022/05/23 08:22:12;;;;;;;7.10;4.45;;;;;;;22.28;48.29;99965.72;3559301;40;20061;-62
2022/05/23 08:24:39;;;;;;;7.32;4.53;;;;;;;22.33;48.60;99987.03;3558273;40;20045;-62
2022/05/23 08:27:04;;;;;;;8.00;4.50;;;;;;;22.21;49.27;99981.22;3561740;40;20383;-63
2022/05/23 08:29:31;;;;;;;10.05;4.38;;;;;;;21.95;49.27;99952.44;3558060;40;20065;-63
2022/05/23 08:31:59;;;;;;;10.50;4.57;;;;;;;22.06;50.08;99980.38;3560107;40;20053;-63
2022/05/23 08:34:25;;;;;;;11.45;4.57;;;;;;;21.99;49.77;99961.97;3559599;40;20061;-63
2022/05/23 08:36:52;;;;;;;11.65;4.68;;;;;;;22.02;49.92;99967.06;3558834;40;20368;-63
2022/05/23 08:39:18;;;;;;;12.43;4.60;;;;;;;22.10;51.67;99957.88;3558197;40;20049;-63
2022/05/23 08:41:50;;;;;;;8.95;4.38;;;;;;;22.18;51.07;99946.03;3559267;40;20404;-63
2022/05/23 08:44:44;;;;;;;9.82;4.00;;;;;;;22.30;49.71;99941.75;3557960;40;20092;-63
2022/05/23 08:47:35;;;;;;;7.90;3.95;;;;;;;22.40;50.02;99941.44;3559052;40;20369;-64
2022/05/23 08:50:28;;;;;;;8.50;4.32;;;;;;;22.46;49.28;99946.97;3559627;40;20097;-63
2022/05/23 08:53:13;;;;;;;8.80;4.50;;;;;;;22.53;49.18;99933.34;3560492;40;20073;-63
2022/05/23 08:55:48;;;;;;;7.03;4.60;;;;;;;22.56;48.57;99934.88;3558569;40;20112;-63
2022/05/23 08:58:27;;;;;;;6.35;4.18;;;;;;;22.65;49.29;99929.06;3559383;40;20072;-62
2022/05/23 09:01:12;;;;;;;9.55;4.65;;;;;;;22.74;48.21;99932.53;3559828;40;20596;-62
2022/05/23 09:03:50;;;;;;;8.90;4.45;;;;;;;22.68;49.23;99923.19;3558844;40;20058;-62
2022/05/23 09:06:31;;;;;;;13.43;4.65;;;;;;;22.67;48.57;99909.69;3557178;40;20089;-62
2022/05/23 09:09:07;;;;;;;8.38;4.80;;;;;;;22.72;48.88;99912.69;3558161;40;20150;-63
2022/05/23 09:11:47;;;;;;;11.48;4.55;;;;;;;22.69;48.84;99908.44;3557505;40;20090;-63
2022/05/23 09:14:16;;;;;;;4.80;3.80;;;;;;;22.66;50.43;99900.63;3559022;40;20053;-62
2022/05/23 09:16:54;;;;;;;9.07;4.40;;;;;;;22.65;49.51;99895.34;3560325;40;20065;-63
2022/05/23 09:19:38;;;;;;;6.88;4.63;;;;;;;22.67;49.69;99906.94;3558053;40;20069;-62
2022/05/23 09:22:23;;;;;;;11.82;4.80;;;;;;;22.64;49.11;99904.59;3557500;40;20046;-63
2022/05/23 09:24:56;;;;;;;9.68;4.32;;;;;;;22.58;49.67;99894.41;3561060;40;20053;-63
2022/05/23 09:27:36;;;;;;;9.20;4.38;;;;;;;22.46;50.46;99888.63;3556121;40;20110;-64
2022/05/23 09:30:10;;;;;;;8.43;4.05;;;;;;;22.31;51.32;99883.19;3560257;40;20053;-64
2022/05/23 09:33:10;;;;;;;14.48;4.35;;;;;;;22.40;51.19;99879.28;3558229;40;21136;-64
2022/05/23 09:36:12;;;;;;;9.02;4.28;;;;;;;22.54;50.71;99874.78;3556443;40;20092;-64
2022/05/23 09:39:23;;;;;;;9.20;3.95;;;;;;;22.88;51.34;99854.00;3559333;40;20380;-64
2022/05/23 09:47:45;;;;;;;9.40;4.00;;;;;;;23.36;48.39;99848.69;3562606;40;20060;-64
2022/05/23 09:50:30;;;;;;;9.23;4.00;;;;;;;23.29;48.27;99845.91;3558927;40;20057;-63
2022/05/23 09:52:59;;;;;;;10.90;4.25;;;;;;;23.28;48.38;99841.47;3559442;40;20053;-64
2022/05/23 09:55:31;;;;;;;6.10;4.13;;;;;;;23.43;48.02;99802.09;3558875;40;20064;-63
2022/05/23 09:58:08;;;;;;;8.00;4.20;;;;;;;23.90;47.66;99828.69;3558587;40;20106;-63
2022/05/23 10:01:02;;;;;;;7.93;4.10;;;;;;;24.10;47.97;99828.75;3556389;40;20052;-62
2022/05/23 10:03:32;;;;;;;7.65;4.38;;;;;;;24.62;48.00;99821.69;3560852;40;20061;-63
2022/05/23 10:06:11;;;;;;;10.40;4.45;;;;;;;24.85;44.40;99818.50;3558136;40;20375;-63
2022/05/23 10:08:46;;;;;;;7.70;4.05;;;;;;;25.30;44.63;99806.81;3549457;40;20075;-63
2022/05/23 10:11:18;;;;;;;8.80;4.22;;;;;;;25.57;43.73;99800.16;3560945;40;20057;-63
2022/05/23 10:13:56;;;;;;;7.03;4.18;;;;;;;25.96;42.38;99801.06;3562264;40;20080;-63
2022/05/23 10:16:49;;;;;;;7.13;3.75;;;;;;;26.42;42.10;99799.91;3557954;40;20099;-63
2022/05/23 10:19:38;;;;;;;10.98;4.28;;;;;;;26.72;40.45;99804.78;3557975;40;20068;-63
2022/05/23 10:22:20;;;;;;;7.55;3.80;;;;;;;26.85;40.42;99819.28;3558620;40;20059;-63
2022/05/23 10:25:05;;;;;;;7.55;3.95;;;;;;;27.05;40.96;99818.25;3559197;40;20148;-63
2022/05/23 10:27:53;;;;;;;6.18;3.85;;;;;;;27.34;39.10;99813.97;3559270;40;20087;-62
2022/05/23 10:30:23;;;;;;;5.82;3.42;;;;;;;27.49;38.74;99811.66;3559111;40;20061;-62
2022/05/23 10:33:04;;;;;;;10.75;3.92;;;;;;;27.51;37.24;99804.00;3557741;40;20087;-62
2022/05/23 10:35:40;;;;;;;7.05;3.67;;;;;;;27.37;38.13;99801.59;3560783;40;20131;-63
2022/05/23 10:44:30;;;;;;;6.20;3.78;;;;;;;27.78;36.04;99778.81;3559936;40;20055;-63
2022/05/23 10:47:27;;;;;;;4.28;3.10;;;;;;;27.94;37.84;99777.31;3559127;40;20054;-62
2022/05/23 10:50:24;;;;;;;5.13;3.67;;;;;;;28.18;36.22;99756.16;3559979;40;20072;-63
2022/05/23 10:53:20;;;;;;;5.13;3.40;;;;;;;28.43;35.51;99753.22;3558444;40;20369;-62
2022/05/23 10:56:10;;;;;;;7.53;3.67;;;;;;;28.61;34.82;99755.06;3559514;40;20049;-62
2022/05/23 10:59:23;;;;;;;5.80;4.10;;;;;;;28.71;36.09;99752.53;3558923;40;20060;-62
2022/05/23 11:02:01;;;;;;;5.07;3.72;;;;;;;29.10;34.93;99737.13;3559538;40;20320;-62
2022/05/23 11:04:41;;;;;;;6.97;4.32;;;;;;;29.04;35.73;99732.56;3559552;40;20057;-62
2022/05/23 11:07:42;;;;;;;6.20;4.10;;;;;;;29.23;36.09;99726.88;3557128;40;20050;-62
2022/05/23 11:10:26;;;;;;;4.90;3.20;;;;;;;29.46;34.91;99703.81;3559129;40;20057;-62
2022/05/23 11:13:19;;;;;;;6.38;3.00;;;;;;;28.84;32.79;99690.59;3558646;40;20057;-62
2022/05/23 11:16:18;;;;;;;3.97;2.72;;;;;;;29.06;32.96;99680.59;3560868;40;20072;-62
2022/05/23 11:19:53;;;;;;;8.60;2.67;;;;;;;29.17;32.20;99675.28;3556859;40;20380;-62
2022/05/23 11:22:31;;;;;;;5.35;2.40;;;;;;;29.29;32.94;99668.59;3537099;40;20089;-62
2022/05/23 11:25:24;;;;;;;5.82;2.15;;;;;;;29.17;33.14;99659.50;3532315;40;20329;-62
2022/05/23 11:34:26;;;;;;;5.22;2.42;;;;;;;28.68;34.50;99645.16;3560438;40;20056;-62
2022/05/23 11:40:01;;;;;;;3.65;2.22;;;;;;;28.85;33.10;99640.53;3561550;40;20069;-64
2022/05/23 11:42:58;;;;;;;2.92;2.10;;;;;;;28.76;33.53;99642.00;3558395;40;20185;-63
2022/05/23 11:49:00;;;;;;;5.85;2.53;;;;;;;28.17;34.46;99632.88;3559271;40;20068;-64
2022/05/23 11:51:36;;;;;;;4.38;2.50;;;;;;;28.09;35.81;99591.78;3558659;40;20066;-62
2022/05/23 11:54:40;;;;;;;5.97;2.53;;;;;;;28.27;34.86;99626.75;3559258;40;20158;-62
2022/05/23 11:57:05;;;;;;;;;;;;;;;28.01;34.19;99617.84;3547920;40;20127;-63
2022/05/23 11:59:31;;;;;;;6.75;2.13;;;;;;;27.81;34.21;99614.56;3560335;40;19933;-63
2022/05/23 12:02:08;;;;;;;4.40;2.30;;;;;;;27.60;34.34;99611.25;3559423;40;20064;-63
2022/05/23 12:04:55;;;;;;;6.70;2.55;;;;;;;27.37;36.21;99609.28;3560731;40;20059;-62
2022/05/23 12:07:43;;;;;;;6.03;2.47;;;;;;;27.15;35.27;99605.31;3559806;40;20424;-63
2022/05/23 12:10:22;;;;;;;5.93;2.50;;;;;;;26.93;35.67;99611.31;3557513;40;20053;-63
2022/05/23 12:12:57;;;;;;;3.22;2.13;;;;;;;26.67;36.93;99601.44;3560623;40;20056;-65
2022/05/23 12:15:44;;;;;;;5.85;2.53;;;;;;;26.57;35.82;99601.13;3560221;40;20471;-63
2022/05/23 12:18:13;;;;;;;6.00;2.30;;;;;;;26.55;37.71;99593.09;3559961;40;20057;-63
2022/05/23 12:20:47;;;;;;;7.13;2.40;;;;;;;26.39;36.58;99593.69;3550344;40;20045;-62
2022/05/23 12:23:41;;;;;;;9.55;2.72;;;;;;;26.32;38.00;99598.41;3556345;40;20400;-63
2022/05/23 12:26:09;;;;;;;5.55;2.63;;;;;;;26.25;36.90;99600.38;3558546;40;20061;-62
2022/05/23 12:28:58;;;;;;;4.50;2.28;;;;;;;26.20;37.73;99594.72;3558955;40;20061;-63
2022/05/23 12:32:07;;;;;;;7.07;2.63;;;;;;;26.22;37.73;99582.41;3557787;40;20069;-63
2022/05/23 12:34:42;;;;;;;2.47;2.20;;;;;;;26.17;37.90;99574.81;3558859;40;20063;-63
2022/05/23 12:37:29;;;;;;;4.95;2.28;;;;;;;26.19;37.07;99565.47;3560058;40;20050;-63
2022/05/23 12:40:24;;;;;;;2.53;2.20;;;;;;;26.08;37.06;99556.06;3558404;40;20065;-63
2022/05/23 12:43:16;;;;;;;5.07;2.10;;;;;;;26.15;37.28;99560.44;3558029;40;20131;-63
2022/05/23 12:46:20;;;;;;;3.35;1.73;;;;;;;26.19;37.59;99557.22;3558311;40;20153;-62
2022/05/23 12:49:26;;;;;;;5.30;2.70;;;;;;;26.26;38.96;99545.06;3560723;40;20061;-64
2022/05/23 12:52:24;;;;;;;10.18;3.55;;;;;;;26.23;38.52;99539.16;3557657;40;20085;-63
2022/05/23 12:55:43;;;;;;;11.15;2.95;;;;;;;26.17;38.19;99536.25;3547409;40;20061;-62
2022/05/23 12:59:19;;;;;;;6.95;2.78;;;;;;;26.03;39.00;99529.19;3557835;40;20061;-63